Time;durP1;ratioP1;P1;durP2;ratioP2;P2;SDS_P1;SDS_P2;PMS_P1;PMS_P2;Temp;Humidity;BMP_temperature;BMP_pressure;BME280_temperature;BME280_humidity;BME280_pressure;Samples;Min_cycle;Max_cycle;Signal;HPM_P1;HPM_P2
2022/01/23 00:02:21;;;;;;;0.80;0.60;;;5.80;99.90;;;;;;4953348;28;20213;-85
2022/01/23 00:04:47;;;;;;;0.80;0.70;;;5.70;99.90;;;;;;4943962;28;21134;-85
2022/01/23 00:07:15;;;;;;;0.80;0.70;;;5.80;99.90;;;;;;4944984;28;20985;-85
2022/01/23 00:09:41;;;;;;;0.80;0.70;;;5.80;99.90;;;;;;4971421;28;20488;-84
2022/01/23 00:12:12;;;;;;;0.80;0.70;;;5.80;99.90;;;;;;4956850;28;20528;-85
2022/01/23 00:17:24;;;;;;;0.80;0.70;;;5.80;99.90;;;;;;4950761;28;20589;-85
2022/01/23 00:19:57;;;;;;;0.80;0.70;;;5.80;99.90;;;;;;4941050;28;20532;-85
2022/01/23 00:22:32;;;;;;;0.80;0.67;;;5.80;99.90;;;;;;4952795;28;20495;-86
2022/01/23 00:30:30;;;;;;;0.80;0.70;;;5.80;99.90;;;;;;4958988;28;20900;-85
2022/01/23 00:32:58;;;;;;;0.80;0.80;;;5.80;99.90;;;;;;4941913;28;20463;-85
2022/01/23 00:35:25;;;;;;;0.80;0.70;;;5.80;99.90;;;;;;4971019;28;20448;-85
2022/01/23 00:37:51;;;;;;;0.80;0.70;;;5.80;99.90;;;;;;4961149;28;20437;-85
2022/01/23 00:40:17;;;;;;;0.80;0.70;;;5.80;99.90;;;;;;4954347;28;20445;-87
2022/01/23 00:42:44;;;;;;;2.03;1.23;;;5.80;99.90;;;;;;4952731;28;20453;-86
2022/01/23 00:45:27;;;;;;;0.90;0.90;;;5.80;99.90;;;;;;4954527;28;20540;-87
2022/01/23 00:48:02;;;;;;;1.40;1.20;;;5.80;99.90;;;;;;4958142;28;20452;-85
2022/01/23 00:50:30;;;;;;;0.80;0.63;;;5.80;99.90;;;;;;4953769;28;22536;-85
2022/01/23 00:52:56;;;;;;;0.80;0.70;;;5.80;99.90;;;;;;4942641;28;20457;-86
2022/01/23 00:55:22;;;;;;;1.30;1.20;;;5.80;99.90;;;;;;4937519;28;20820;-85
2022/01/23 00:57:47;;;;;;;0.80;0.70;;;5.80;99.90;;;;;;4958556;28;20193;-84
2022/01/23 01:00:13;;;;;;;0.80;0.70;;;5.80;99.90;;;;;;4934399;28;20669;-86
2022/01/23 01:02:39;;;;;;;0.80;0.70;;;5.80;99.90;;;;;;4947715;28;20742;-85
2022/01/23 01:05:06;;;;;;;0.80;0.70;;;5.90;99.90;;;;;;4947938;28;20485;-86
2022/01/23 01:07:32;;;;;;;0.80;0.70;;;5.90;99.90;;;;;;4957978;28;20485;-86
2022/01/23 01:10:02;;;;;;;0.80;0.70;;;5.90;99.90;;;;;;4959738;28;20941;-86
2022/01/23 01:12:37;;;;;;;0.80;0.70;;;5.90;99.90;;;;;;4963101;28;20930;-85
2022/01/23 01:30:14;;;;;;;0.80;0.70;;;5.90;99.90;;;;;;4951341;28;20449;-85
2022/01/23 01:33:58;;;;;;;0.80;0.70;;;5.90;99.90;;;;;;4937421;28;20462;-85
2022/01/23 01:36:32;;;;;;;0.80;0.63;;;5.90;99.90;;;;;;4918225;28;20191;-86
2022/01/23 01:38:57;;;;;;;0.80;0.70;;;5.90;99.90;;;;;;4937927;28;20547;-85
2022/01/23 01:41:23;;;;;;;2.87;2.60;;;5.90;99.90;;;;;;4934592;28;21340;-85
2022/01/23 01:43:51;;;;;;;0.90;0.90;;;5.90;99.90;;;;;;4935680;28;20655;-86
2022/01/23 01:46:17;;;;;;;0.80;0.80;;;5.90;99.90;;;;;;4939462;28;20905;-87
2022/01/23 01:48:42;;;;;;;0.80;0.70;;;5.90;99.90;;;;;;4930647;28;20442;-86
2022/01/23 01:51:11;;;;;;;0.80;0.70;;;5.90;99.90;;;;;;4933269;28;20194;-88
2022/01/23 01:53:37;;;;;;;0.80;0.70;;;5.90;99.90;;;;;;4937324;28;20806;-85
2022/01/23 01:56:05;;;;;;;2.17;2.07;;;5.90;99.90;;;;;;4934284;28;21108;-86
2022/01/23 01:59:08;;;;;;;0.80;0.70;;;5.90;99.90;;;;;;4916530;28;20562;-85
2022/01/23 02:09:27;;;;;;;10.77;1.93;;;5.90;99.90;;;;;;4934575;28;20497;-85
2022/01/23 02:15:09;;;;;;;2.50;1.20;;;5.90;99.90;;;;;;4936328;28;20449;-85
2022/01/23 02:17:57;;;;;;;1.33;1.23;;;5.90;99.90;;;;;;4931041;28;21029;-85
2022/01/23 02:55:27;;;;;;;0.80;0.70;;;6.00;99.90;;;;;;4959052;28;20461;-86
2022/01/23 02:57:57;;;;;;;0.80;0.77;;;6.00;99.90;;;;;;4955216;28;20893;-85
2022/01/23 03:00:33;;;;;;;0.80;0.70;;;6.00;99.90;;;;;;4951128;28;20481;-86
2022/01/23 03:03:09;;;;;;;0.80;0.67;;;6.00;99.90;;;;;;4953088;28;20997;-85
2022/01/23 03:05:37;;;;;;;0.80;0.70;;;6.00;99.90;;;;;;4967187;28;20587;-84
2022/01/23 03:08:20;;;;;;;1.30;1.20;;;6.00;99.90;;;;;;4956515;28;21030;-86
2022/01/23 03:10:58;;;;;;;2.50;2.30;;;6.00;99.90;;;;;;4957642;28;20476;-86
2022/01/23 03:24:50;;;;;;;0.80;0.70;;;6.00;99.90;;;;;;4971528;28;20479;-85
2022/01/23 03:27:47;;;;;;;0.80;0.60;;;6.00;99.90;;;;;;4961786;28;20448;-86
2022/01/23 03:32:46;;;;;;;0.80;0.77;;;6.00;99.90;;;;;;4957915;28;20448;-85
2022/01/23 03:35:12;;;;;;;0.80;0.70;;;6.00;99.90;;;;;;4955426;28;20518;-85
2022/01/23 03:37:38;;;;;;;0.80;0.70;;;6.00;99.90;;;;;;4952211;28;20528;-85
2022/01/23 03:40:05;;;;;;;0.80;0.70;;;6.00;99.90;;;;;;4959115;28;20446;-86
2022/01/23 03:42:33;;;;;;;0.80;0.70;;;6.00;99.90;;;;;;4948106;28;20189;-85
2022/01/23 03:45:24;;;;;;;0.80;0.60;;;6.00;99.90;;;;;;4954804;28;20491;-85
2022/01/23 03:49:30;;;;;;;1.10;1.00;;;6.00;99.90;;;;;;4959062;28;20445;-85
2022/01/23 03:50:40;;;;;;;0.83;0.83;;;6.00;99.90;;;;;;4949237;28;20453;-85
2022/01/23 03:53:06;;;;;;;0.80;0.77;;;6.00;99.90;;;;;;4956573;28;20469;-85
2022/01/23 03:55:31;;;;;;;0.80;0.70;;;6.00;99.90;;;;;;4954056;28;20565;-86
2022/01/23 03:57:57;;;;;;;0.80;0.70;;;6.00;99.90;;;;;;4950134;28;20201;-85
2022/01/23 04:00:23;;;;;;;0.80;0.70;;;6.00;99.90;;;;;;4964376;28;20512;-85
2022/01/23 04:02:50;;;;;;;0.80;0.60;;;6.00;99.90;;;;;;4938849;28;20186;-85
2022/01/23 04:05:16;;;;;;;0.70;0.60;;;6.00;99.90;;;;;;4953012;28;21135;-85
2022/01/23 04:07:42;;;;;;;0.80;0.63;;;6.00;99.90;;;;;;4958808;28;20553;-85
2022/01/23 04:10:10;;;;;;;0.80;0.70;;;6.10;99.90;;;;;;4960955;28;20467;-85
2022/01/23 04:12:53;;;;;;;0.90;0.80;;;6.00;99.90;;;;;;4953659;28;20449;-86
2022/01/23 04:15:41;;;;;;;0.80;0.70;;;6.00;99.90;;;;;;4940089;28;20476;-85
2022/01/23 04:32:06;;;;;;;0.80;0.70;;;6.00;99.90;;;;;;4953047;28;20475;-86
2022/01/23 04:45:29;;;;;;;0.80;0.60;;;6.10;99.90;;;;;;4964009;28;20878;-86
2022/01/23 04:48:54;;;;;;;0.80;0.70;;;6.10;99.90;;;;;;4957477;28;21021;-85
2022/01/23 05:04:31;;;;;;;0.80;0.70;;;6.10;99.90;;;;;;4958504;28;20848;-86
2022/01/23 05:07:00;;;;;;;0.80;0.70;;;6.10;99.90;;;;;;4954638;28;20508;-86
2022/01/23 05:09:28;;;;;;;0.80;0.70;;;6.10;99.90;;;;;;4974799;28;20441;-86
2022/01/23 05:11:59;;;;;;;0.90;0.90;;;6.10;99.90;;;;;;4953592;28;20449;-85
2022/01/23 05:14:31;;;;;;;0.80;0.70;;;6.10;99.90;;;;;;4952447;28;20445;-86
2022/01/23 05:16:58;;;;;;;0.90;0.80;;;6.10;99.90;;;;;;4967156;28;20457;-86
2022/01/23 05:19:24;;;;;;;0.80;0.80;;;6.10;99.90;;;;;;4960023;28;20930;-86
2022/01/23 05:24:20;;;;;;;0.80;0.60;;;6.10;99.90;;;;;;4968761;28;20452;-87
2022/01/23 05:26:46;;;;;;;0.80;0.80;;;6.10;99.90;;;;;;4962500;28;20200;-87
2022/01/23 05:29:14;;;;;;;0.80;0.60;;;6.20;99.90;;;;;;4957954;28;20940;-85
2022/01/23 05:31:40;;;;;;;0.80;0.70;;;6.10;99.90;;;;;;4969177;28;20453;-86
2022/01/23 05:34:06;;;;;;;0.80;0.70;;;6.10;99.90;;;;;;4968630;28;20449;-86
2022/01/23 05:36:32;;;;;;;0.80;0.70;;;6.20;99.90;;;;;;4962127;28;20460;-86
2022/01/23 05:38:57;;;;;;;0.80;0.70;;;6.20;99.90;;;;;;4959482;28;20186;-84
2022/01/23 05:41:24;;;;;;;2.80;1.50;;;6.20;99.90;;;;;;4971052;28;20190;-86
2022/01/23 05:43:50;;;;;;;0.80;0.60;;;6.20;99.90;;;;;;4951041;28;20542;-86
2022/01/23 05:46:16;;;;;;;0.80;0.63;;;6.10;99.90;;;;;;4953627;28;20485;-85
2022/01/23 05:48:42;;;;;;;0.80;0.70;;;6.20;99.90;;;;;;4954351;28;20949;-84
2022/01/23 05:51:12;;;;;;;0.80;0.60;;;6.10;99.90;;;;;;4953805;28;20529;-85
2022/01/23 05:53:38;;;;;;;0.80;0.80;;;6.20;99.90;;;;;;4956248;28;20226;-85
2022/01/23 05:56:04;;;;;;;0.80;0.70;;;6.20;99.90;;;;;;4956792;28;20449;-86
2022/01/23 05:58:30;;;;;;;0.80;0.70;;;6.20;99.90;;;;;;4951990;28;21058;-86
2022/01/23 06:00:56;;;;;;;1.20;1.10;;;6.20;99.90;;;;;;4957139;28;20264;-85
2022/01/23 06:03:22;;;;;;;0.70;0.60;;;6.20;99.90;;;;;;4960360;28;20192;-85
2022/01/23 06:05:48;;;;;;;0.80;0.70;;;6.20;99.90;;;;;;4959925;28;20492;-86
2022/01/23 06:08:13;;;;;;;0.93;0.83;;;6.20;99.90;;;;;;4960348;28;20193;-86
2022/01/23 06:10:56;;;;;;;0.73;0.60;;;6.20;99.90;;;;;;4955078;28;20284;-85
2022/01/23 06:13:24;;;;;;;0.80;0.70;;;6.20;99.90;;;;;;4958057;28;20195;-85
2022/01/23 06:15:49;;;;;;;1.00;0.90;;;6.20;99.90;;;;;;4958491;28;20464;-86
2022/01/23 06:18:15;;;;;;;0.80;0.60;;;6.20;99.90;;;;;;4968763;28;20485;-85
2022/01/23 06:20:40;;;;;;;0.80;0.80;;;6.20;99.90;;;;;;4953822;28;20292;-86
2022/01/23 06:23:06;;;;;;;0.80;0.70;;;6.30;99.90;;;;;;4953031;28;20210;-86
2022/01/23 06:25:34;;;;;;;0.90;0.90;;;6.20;99.90;;;;;;4967069;28;20264;-86
2022/01/23 06:28:02;;;;;;;0.80;0.60;;;6.30;99.90;;;;;;4971539;28;20196;-87
2022/01/23 06:30:28;;;;;;;0.80;0.60;;;6.20;99.90;;;;;;4971535;28;20481;-85
2022/01/23 06:32:53;;;;;;;0.73;0.60;;;6.20;99.90;;;;;;4954745;28;20448;-85
2022/01/23 06:35:19;;;;;;;0.70;0.60;;;6.20;99.90;;;;;;4971138;28;20220;-85
2022/01/23 06:37:44;;;;;;;0.80;0.80;;;6.20;99.90;;;;;;4971151;28;20245;-85
2022/01/23 06:40:10;;;;;;;0.90;0.80;;;6.20;99.90;;;;;;4962211;28;20197;-87
2022/01/23 06:42:36;;;;;;;0.77;0.60;;;6.30;99.90;;;;;;4953405;28;20198;-86
2022/01/23 06:45:02;;;;;;;0.80;0.70;;;6.30;99.90;;;;;;4969845;28;20500;-86
2022/01/23 06:47:27;;;;;;;0.80;0.60;;;6.20;99.90;;;;;;4953664;28;20186;-86
2022/01/23 06:49:53;;;;;;;1.97;1.27;;;6.20;99.90;;;;;;4974646;28;20212;-86
2022/01/23 06:52:18;;;;;;;0.80;0.60;;;6.30;99.90;;;;;;4953520;28;20646;-86
2022/01/23 06:54:44;;;;;;;0.80;0.70;;;6.20;99.90;;;;;;4969495;28;20193;-86
2022/01/23 06:57:10;;;;;;;0.80;0.70;;;6.20;99.90;;;;;;4961222;28;20195;-85
2022/01/23 06:59:35;;;;;;;0.80;0.80;;;6.20;99.90;;;;;;4968355;28;20266;-86
2022/01/23 07:02:03;;;;;;;0.80;0.70;;;6.20;99.90;;;;;;4960923;28;20198;-86
2022/01/23 07:04:29;;;;;;;0.80;0.60;;;6.20;99.90;;;;;;4959753;28;20281;-85
2022/01/23 07:06:54;;;;;;;1.53;1.43;;;6.20;99.90;;;;;;4952664;28;20477;-87
2022/01/23 07:09:20;;;;;;;0.80;0.70;;;6.30;99.90;;;;;;4966206;28;20523;-86
2022/01/23 07:11:45;;;;;;;0.80;0.70;;;6.20;99.90;;;;;;4959067;28;20198;-85
2022/01/23 07:14:11;;;;;;;0.80;0.70;;;6.20;99.90;;;;;;4966153;28;20277;-85
2022/01/23 07:16:36;;;;;;;0.80;0.70;;;6.20;99.90;;;;;;4967096;28;20238;-85
2022/01/23 07:19:03;;;;;;;0.80;0.70;;;6.20;99.90;;;;;;4977200;28;20608;-85
2022/01/23 07:21:29;;;;;;;0.80;0.80;;;6.20;99.90;;;;;;4973438;28;20186;-85
2022/01/23 07:23:56;;;;;;;0.80;0.70;;;6.20;99.90;;;;;;4971994;28;20437;-85
2022/01/23 07:26:24;;;;;;;0.80;0.60;;;6.20;99.90;;;;;;4971005;28;20236;-83
2022/01/23 07:28:52;;;;;;;0.80;0.70;;;6.20;99.90;;;;;;4961116;28;20433;-83
2022/01/23 07:34:01;;;;;;;0.80;0.70;;;6.30;99.90;;;;;;4969791;28;20772;-85
2022/01/23 07:36:28;;;;;;;0.80;0.60;;;6.20;99.90;;;;;;4968583;28;20445;-85
2022/01/23 07:38:54;;;;;;;0.80;0.60;;;6.20;99.90;;;;;;4966929;28;20970;-83
2022/01/23 07:41:21;;;;;;;0.80;0.70;;;6.30;99.90;;;;;;4972321;28;20441;-83
2022/01/23 07:43:46;;;;;;;0.80;0.70;;;6.30;99.90;;;;;;4971853;28;20193;-83
2022/01/23 07:46:12;;;;;;;1.13;1.03;;;6.30;99.90;;;;;;4976412;28;20499;-85
2022/01/23 07:48:38;;;;;;;0.80;0.60;;;6.30;99.90;;;;;;4976578;28;20185;-85
2022/01/23 07:51:03;;;;;;;1.50;1.33;;;6.30;99.90;;;;;;4971968;28;20237;-85
2022/01/23 07:53:29;;;;;;;0.80;0.70;;;6.30;99.90;;;;;;4966204;28;20190;-84
2022/01/23 07:55:54;;;;;;;1.30;1.20;;;6.30;99.90;;;;;;4961840;28;20197;-85
2022/01/23 07:58:20;;;;;;;0.80;0.60;;;6.30;99.90;;;;;;4971053;28;20224;-85
2022/01/23 08:00:47;;;;;;;0.80;0.63;;;6.30;99.90;;;;;;4958417;28;20186;-83
2022/01/23 08:03:13;;;;;;;0.80;0.60;;;6.40;99.90;;;;;;4955736;28;20255;-84
2022/01/23 08:05:39;;;;;;;0.80;0.70;;;6.40;99.90;;;;;;4969434;28;20487;-84
2022/01/23 08:08:04;;;;;;;0.80;0.60;;;6.40;99.90;;;;;;4973514;28;20445;-84
2022/01/23 08:10:30;;;;;;;0.80;0.60;;;6.40;99.90;;;;;;4973513;28;20194;-85
2022/01/23 08:12:56;;;;;;;0.80;0.60;;;6.40;99.90;;;;;;4973542;28;20690;-85
2022/01/23 08:15:21;;;;;;;0.80;0.80;;;6.40;99.90;;;;;;4976929;28;20192;-84
2022/01/23 08:17:47;;;;;;;1.00;0.60;;;6.40;99.90;;;;;;4972521;28;20202;-84
2022/01/23 08:20:12;;;;;;;0.80;0.60;;;6.50;99.90;;;;;;4973789;28;20194;-85
2022/01/23 08:22:38;;;;;;;0.80;0.60;;;6.50;99.90;;;;;;4961981;28;20224;-87
2022/01/23 08:25:04;;;;;;;0.80;0.70;;;6.50;99.90;;;;;;4953616;28;20292;-85
2022/01/23 08:27:30;;;;;;;0.80;0.60;;;6.60;99.90;;;;;;4943830;28;20241;-85
2022/01/23 08:29:56;;;;;;;0.80;0.70;;;6.60;99.90;;;;;;4974327;28;20492;-85
2022/01/23 08:32:21;;;;;;;0.80;0.70;;;6.60;99.90;;;;;;4964231;28;20717;-85
2022/01/23 08:34:47;;;;;;;0.80;0.70;;;6.60;99.90;;;;;;4973185;28;20644;-85
2022/01/23 08:37:13;;;;;;;0.80;0.70;;;6.60;99.90;;;;;;4966865;28;20225;-85
2022/01/23 08:39:40;;;;;;;1.20;1.00;;;6.70;99.90;;;;;;4952793;28;20674;-85
2022/01/23 08:42:08;;;;;;;0.90;0.90;;;6.70;99.90;;;;;;4972746;28;20515;-85
2022/01/23 08:44:35;;;;;;;0.80;0.60;;;6.70;99.90;;;;;;4973614;28;20463;-85
2022/01/23 08:47:01;;;;;;;0.80;0.60;;;6.70;99.90;;;;;;4953298;28;20479;-86
2022/01/23 08:49:28;;;;;;;0.80;0.80;;;6.70;99.90;;;;;;4962992;28;20530;-85
2022/01/23 08:51:55;;;;;;;0.80;0.60;;;6.70;99.90;;;;;;4964539;28;20471;-86
2022/01/23 08:54:21;;;;;;;1.10;0.93;;;6.70;99.90;;;;;;4968403;28;20556;-86
2022/01/23 08:56:46;;;;;;;0.80;0.63;;;6.70;99.90;;;;;;4971868;28;20448;-86
2022/01/23 08:59:12;;;;;;;0.80;0.70;;;6.70;99.90;;;;;;4966774;28;20517;-85
2022/01/23 09:01:38;;;;;;;0.80;0.70;;;6.70;99.90;;;;;;4962456;28;20568;-85
2022/01/23 09:04:05;;;;;;;0.80;0.60;;;6.70;99.90;;;;;;4960633;28;20198;-85
2022/01/23 09:06:30;;;;;;;0.80;0.60;;;6.70;99.90;;;;;;4953263;28;20604;-86
2022/01/23 09:08:58;;;;;;;0.80;0.60;;;6.70;99.90;;;;;;4954909;28;20842;-84
2022/01/23 09:11:39;;;;;;;1.30;1.13;;;6.60;99.90;;;;;;4971992;28;20188;-88
2022/01/23 09:14:10;;;;;;;1.67;1.57;;;6.70;99.90;;;;;;4953720;28;20436;-88
2022/01/23 09:16:38;;;;;;;0.73;0.60;;;6.70;99.90;;;;;;4971450;28;20456;-85
2022/01/23 09:19:04;;;;;;;1.53;1.33;;;6.70;99.90;;;;;;4969904;28;20498;-85
2022/01/23 09:21:30;;;;;;;0.80;0.60;;;6.70;99.90;;;;;;4971190;28;20946;-85
2022/01/23 09:23:56;;;;;;;0.80;0.60;;;6.80;99.90;;;;;;4968888;28;20481;-85
2022/01/23 09:26:23;;;;;;;0.80;0.60;;;6.80;99.90;;;;;;4966069;28;20489;-85
2022/01/23 09:28:50;;;;;;;0.80;0.60;;;6.80;99.90;;;;;;4960189;28;20193;-86
2022/01/23 09:31:26;;;;;;;0.80;0.60;;;6.80;99.90;;;;;;4957672;28;20513;-86
2022/01/23 09:33:52;;;;;;;0.80;0.70;;;6.80;99.90;;;;;;4954037;28;20418;-86
2022/01/23 09:36:17;;;;;;;0.80;0.60;;;6.80;99.90;;;;;;4964378;28;20456;-85
2022/01/23 09:38:43;;;;;;;0.80;0.70;;;6.90;99.90;;;;;;4971414;28;20190;-85
2022/01/23 09:41:14;;;;;;;1.47;0.87;;;6.90;99.90;;;;;;4954534;28;20186;-85
2022/01/23 09:43:40;;;;;;;0.80;0.70;;;7.00;99.90;;;;;;4958192;28;20683;-85
2022/01/23 09:46:07;;;;;;;0.90;0.90;;;7.00;99.90;;;;;;4950732;28;20492;-85
2022/01/23 09:48:34;;;;;;;1.43;1.33;;;7.10;99.90;;;;;;4970524;28;20457;-85
2022/01/23 09:51:01;;;;;;;0.80;0.60;;;7.10;99.90;;;;;;4952624;28;20526;-85
2022/01/23 09:53:28;;;;;;;0.80;0.60;;;7.10;99.90;;;;;;4964574;28;20547;-86
2022/01/23 09:55:59;;;;;;;0.77;0.60;;;7.10;99.90;;;;;;4968638;28;20976;-86
2022/01/23 09:58:25;;;;;;;0.80;0.60;;;7.20;99.90;;;;;;4961191;28;20612;-86
2022/01/23 10:00:51;;;;;;;0.90;0.70;;;7.20;99.90;;;;;;4965933;28;20965;-86
2022/01/23 10:03:19;;;;;;;0.90;0.80;;;7.30;99.90;;;;;;4944687;28;20438;-88
2022/01/23 10:05:48;;;;;;;0.80;0.80;;;7.30;99.90;;;;;;4958588;28;20496;-88
2022/01/23 10:08:15;;;;;;;0.80;0.60;;;7.50;99.90;;;;;;4959473;28;20514;-88
2022/01/23 10:10:41;;;;;;;0.80;0.70;;;7.60;99.90;;;;;;4965735;28;20937;-88
2022/01/23 10:13:06;;;;;;;0.90;0.80;;;7.60;99.90;;;;;;4963513;28;20429;-86
2022/01/23 10:15:32;;;;;;;0.80;0.60;;;7.80;99.90;;;;;;4962236;28;20449;-85
2022/01/23 10:17:59;;;;;;;0.80;0.60;;;8.00;99.90;;;;;;4965692;28;20221;-86
2022/01/23 10:20:25;;;;;;;0.80;0.70;;;8.10;99.90;;;;;;4948140;28;20481;-86
2022/01/23 10:22:53;;;;;;;0.80;0.60;;;8.30;99.90;;;;;;4962825;28;20807;-85
2022/01/23 10:25:30;;;;;;;0.80;0.60;;;8.60;99.90;;;;;;4966503;28;20841;-84
2022/01/23 10:28:10;;;;;;;0.80;0.60;;;8.40;99.90;;;;;;4976507;28;20440;-86
2022/01/23 10:30:55;;;;;;;0.80;0.60;;;8.50;99.90;;;;;;4970887;28;21128;-86
2022/01/23 10:33:27;;;;;;;0.80;0.60;;;8.70;99.90;;;;;;4969201;28;20972;-85
2022/01/23 10:36:10;;;;;;;0.80;0.60;;;8.70;99.90;;;;;;4967734;28;20809;-85
2022/01/23 10:38:40;;;;;;;0.80;0.60;;;9.20;99.90;;;;;;4967179;28;20441;-85
2022/01/23 10:49:58;;;;;;;0.80;0.60;;;9.30;99.90;;;;;;4972330;28;20818;-85
2022/01/23 10:52:40;;;;;;;1.10;0.70;;;9.30;99.90;;;;;;4973644;28;20467;-87
2022/01/23 10:55:22;;;;;;;0.80;0.60;;;9.30;99.90;;;;;;4974426;28;20448;-86
2022/01/23 10:57:50;;;;;;;2.90;2.30;;;9.20;99.90;;;;;;4972678;28;20441;-86
2022/01/23 11:00:35;;;;;;;4.53;1.60;;;9.40;99.90;;;;;;4967999;28;20443;-85
2022/01/23 11:03:15;;;;;;;2.40;0.70;;;9.30;99.90;;;;;;4978057;28;20815;-86
2022/01/23 11:05:41;;;;;;;0.93;0.83;;;9.00;99.90;;;;;;4946171;28;20517;-87
2022/01/23 11:08:22;;;;;;;0.90;0.60;;;8.80;99.90;;;;;;4970179;28;20440;-85
2022/01/23 11:10:55;;;;;;;0.90;0.60;;;8.50;99.90;;;;;;4971537;28;20533;-86
2022/01/23 11:19:35;;;;;;;0.90;0.60;;;8.50;99.90;;;;;;4974590;28;20428;-86
2022/01/23 11:22:03;;;;;;;0.90;0.70;;;8.60;99.90;;;;;;4969119;28;20455;-87
2022/01/23 11:24:38;;;;;;;1.07;0.80;;;8.40;99.90;;;;;;4972829;28;20515;-87
2022/01/23 11:27:04;;;;;;;0.90;0.60;;;8.70;99.90;;;;;;4961459;28;20481;-87
2022/01/23 11:29:31;;;;;;;0.90;0.80;;;9.00;99.90;;;;;;4986170;28;20499;-89
2022/01/23 11:31:58;;;;;;;1.47;1.37;;;9.00;99.90;;;;;;4966385;28;20762;-87
2022/01/23 11:34:28;;;;;;;0.90;0.60;;;9.10;99.90;;;;;;4945600;28;20607;-87
2022/01/23 11:36:54;;;;;;;1.00;0.70;;;9.70;99.90;;;;;;4961637;28;20503;-86
2022/01/23 11:39:36;;;;;;;0.90;0.60;;;9.90;99.90;;;;;;4952158;28;20445;-86
2022/01/23 11:53:51;;;;;;;3.80;1.17;;;9.00;99.90;;;;;;4966337;28;20448;-88
2022/01/23 11:56:26;;;;;;;1.30;0.80;;;9.00;99.90;;;;;;4952323;28;20467;-87
2022/01/23 11:59:20;;;;;;;0.90;0.60;;;9.20;99.90;;;;;;4930917;28;20445;-87
2022/01/23 12:02:07;;;;;;;0.80;0.60;;;8.90;99.90;;;;;;4954407;28;20994;-87
2022/01/23 12:04:34;;;;;;;0.80;0.60;;;9.10;99.90;;;;;;4968075;28;21343;-88
2022/01/23 12:07:20;;;;;;;0.80;0.60;;;9.30;99.90;;;;;;4966638;28;20448;-88
2022/01/23 12:10:21;;;;;;;0.90;0.60;;;9.20;99.90;;;;;;4976868;28;20468;-89
2022/01/23 12:12:49;;;;;;;0.90;0.60;;;10.20;99.90;;;;;;4977265;28;20536;-85
2022/01/23 12:18:22;;;;;;;0.80;0.50;;;10.80;99.90;;;;;;4964597;28;20450;-84
2022/01/23 12:20:50;;;;;;;0.80;0.50;;;10.50;99.90;;;;;;4968164;28;20814;-84
2022/01/23 12:23:17;;;;;;;0.80;0.50;;;10.70;99.90;;;;;;4952784;28;20851;-88
2022/01/23 12:25:45;;;;;;;0.80;0.50;;;10.80;99.90;;;;;;4954507;28;20920;-86
2022/01/23 12:28:32;;;;;;;0.80;0.50;;;11.20;99.90;;;;;;4970961;28;20452;-86
2022/01/23 12:31:22;;;;;;;0.80;0.50;;;11.10;99.90;;;;;;4969339;28;20568;-87
2022/01/23 12:33:52;;;;;;;0.90;0.60;;;10.90;99.90;;;;;;4970100;28;20456;-87
2022/01/23 12:36:24;;;;;;;0.90;0.80;;;11.00;99.90;;;;;;4969622;28;20445;-87
2022/01/23 12:38:54;;;;;;;0.87;0.50;;;10.70;99.90;;;;;;4965551;28;21093;-84
2022/01/23 12:41:25;;;;;;;1.00;0.70;;;10.50;99.90;;;;;;4953649;28;20957;-85
2022/01/23 12:44:07;;;;;;;0.90;0.50;;;10.50;99.90;;;;;;4946551;28;20536;-85
2022/01/23 12:46:41;;;;;;;0.90;0.60;;;10.40;99.90;;;;;;4972073;28;20516;-83
2022/01/23 12:49:17;;;;;;;0.90;0.60;;;10.30;99.90;;;;;;4970050;28;20470;-85
2022/01/23 12:51:43;;;;;;;0.87;0.60;;;10.10;99.90;;;;;;4967846;28;20542;-85
2022/01/23 12:54:13;;;;;;;0.87;0.60;;;10.40;99.90;;;;;;4968603;28;20531;-85
2022/01/23 12:56:44;;;;;;;0.90;0.60;;;10.20;99.90;;;;;;4972586;28;20661;-85
2022/01/23 12:59:26;;;;;;;0.80;0.60;;;9.90;99.90;;;;;;4962640;28;20441;-86
2022/01/23 13:01:59;;;;;;;0.90;0.60;;;9.30;99.90;;;;;;4972237;28;20429;-84
2022/01/23 13:04:49;;;;;;;0.90;0.60;;;9.20;99.90;;;;;;4970867;28;20492;-85
2022/01/23 13:07:32;;;;;;;0.90;0.60;;;9.00;99.90;;;;;;4964539;28;20524;-85
2022/01/23 13:13:16;;;;;;;0.90;0.80;;;9.20;99.90;;;;;;4967428;28;20465;-85
2022/01/23 13:18:20;;;;;;;0.80;0.60;;;9.30;99.90;;;;;;4969337;28;20532;-85
2022/01/23 13:26:42;;;;;;;1.57;1.47;;;9.00;99.90;;;;;;4965247;28;20563;-84
2022/01/23 13:31:54;;;;;;;0.80;0.60;;;8.90;99.90;;;;;;4962267;28;20529;-85
2022/01/23 13:34:45;;;;;;;0.80;0.60;;;9.00;99.90;;;;;;4963582;28;20444;-89
2022/01/23 13:37:13;;;;;;;1.90;1.80;;;9.00;99.90;;;;;;4974657;28;20510;-90
2022/01/23 13:39:51;;;;;;;0.90;0.73;;;8.90;99.90;;;;;;4962030;28;20484;-90
2022/01/23 13:53:22;;;;;;;0.90;0.70;;;8.70;99.90;;;;;;4972056;28;20441;-88
2022/01/23 13:58:37;;;;;;;1.00;0.90;;;8.40;99.90;;;;;;4959977;28;20564;-89
2022/01/23 14:01:34;;;;;;;0.80;0.60;;;8.50;99.90;;;;;;4969030;28;20426;-91
2022/01/23 14:04:00;;;;;;;0.90;0.60;;;8.40;99.90;;;;;;4965765;28;20444;-89
2022/01/23 14:06:26;;;;;;;0.90;0.70;;;8.30;99.90;;;;;;4960823;28;20486;-89
2022/01/23 14:09:04;;;;;;;0.80;0.60;;;8.50;99.90;;;;;;4971599;28;20186;-89
2022/01/23 14:11:29;;;;;;;1.00;0.90;;;8.30;99.90;;;;;;4959583;28;20942;-90
2022/01/23 14:13:55;;;;;;;0.80;0.60;;;8.20;99.90;;;;;;4972636;28;20468;-89
2022/01/23 14:16:27;;;;;;;0.80;0.60;;;8.20;99.90;;;;;;4968124;28;20213;-90
2022/01/23 14:18:52;;;;;;;0.80;0.60;;;8.20;99.90;;;;;;4955836;28;20239;-88
2022/01/23 14:21:22;;;;;;;1.67;0.90;;;8.20;99.90;;;;;;4964252;28;20873;-88
2022/01/23 14:23:55;;;;;;;0.90;0.60;;;8.10;99.90;;;;;;4966731;28;20197;-88
2022/01/23 14:26:22;;;;;;;1.03;0.93;;;8.10;99.90;;;;;;4967987;28;20984;-91
2022/01/23 14:28:51;;;;;;;1.23;1.13;;;8.10;99.90;;;;;;4954724;28;20425;-90
2022/01/23 14:31:21;;;;;;;0.90;0.70;;;8.00;99.90;;;;;;4973830;28;20473;-89
2022/01/23 14:33:50;;;;;;;0.80;0.60;;;8.00;99.90;;;;;;4975292;28;20440;-91
2022/01/23 14:36:18;;;;;;;0.90;0.70;;;8.00;99.90;;;;;;4983454;28;20445;-89
2022/01/23 14:39:03;;;;;;;1.03;0.90;;;7.90;99.90;;;;;;4966854;28;20508;-89
2022/01/23 14:41:36;;;;;;;0.90;0.60;;;7.90;99.90;;;;;;4975511;28;20453;-89
2022/01/23 14:44:21;;;;;;;0.87;0.70;;;7.80;99.90;;;;;;4966427;28;20527;-89
2022/01/23 14:46:51;;;;;;;0.90;0.70;;;7.90;99.90;;;;;;4956342;28;20544;-91
2022/01/23 14:49:26;;;;;;;0.90;0.70;;;7.80;99.90;;;;;;4970728;28;20451;-90
2022/01/23 14:51:54;;;;;;;0.90;0.70;;;7.80;99.90;;;;;;4966369;28;20511;-89
2022/01/23 14:54:21;;;;;;;0.90;0.70;;;7.80;99.90;;;;;;4968209;28;20457;-89
2022/01/23 14:56:47;;;;;;;1.83;1.23;;;7.90;99.90;;;;;;4951238;28;20983;-89
2022/01/23 14:59:14;;;;;;;0.90;0.80;;;7.80;99.90;;;;;;4968477;28;20445;-90
2022/01/23 15:01:41;;;;;;;1.23;1.07;;;7.80;99.90;;;;;;4953648;28;20434;-90
2022/01/23 15:04:09;;;;;;;1.00;0.80;;;7.80;99.90;;;;;;4947826;28;20465;-91
2022/01/23 15:06:36;;;;;;;1.53;1.20;;;7.90;99.90;;;;;;4956100;28;20513;-91
2022/01/23 15:09:06;;;;;;;2.20;1.10;;;7.80;99.90;;;;;;4967650;28;20528;-91
2022/01/23 15:11:32;;;;;;;0.80;0.70;;;7.70;99.90;;;;;;4966133;28;20544;-92
2022/01/23 15:13:58;;;;;;;0.80;0.60;;;7.60;99.90;;;;;;4972186;28;20441;-90
2022/01/23 15:16:23;;;;;;;0.87;0.70;;;7.60;99.90;;;;;;4965492;28;20441;-90
2022/01/23 15:18:49;;;;;;;0.90;0.70;;;7.60;99.90;;;;;;4968051;28;20198;-90
2022/01/23 15:21:14;;;;;;;0.80;0.70;;;7.70;99.90;;;;;;4965249;28;20184;-92
2022/01/23 15:23:41;;;;;;;1.20;1.10;;;7.60;99.90;;;;;;4966751;28;20186;-87
2022/01/23 15:26:07;;;;;;;1.33;1.23;;;7.60;99.90;;;;;;4971556;28;20210;-86
2022/01/23 15:28:32;;;;;;;0.80;0.70;;;7.50;99.90;;;;;;4969342;28;20796;-86
2022/01/23 15:30:58;;;;;;;0.90;0.70;;;7.50;99.90;;;;;;4971972;28;20288;-86
2022/01/23 15:33:23;;;;;;;2.67;1.50;;;7.50;99.90;;;;;;4974454;28;20694;-86
2022/01/23 15:35:49;;;;;;;0.90;0.70;;;7.40;99.90;;;;;;4969218;28;20194;-86
2022/01/23 15:38:16;;;;;;;0.90;0.80;;;7.30;99.90;;;;;;4972891;28;20186;-89
2022/01/23 15:40:43;;;;;;;0.80;0.70;;;7.30;99.90;;;;;;4978865;28;20230;-88
2022/01/23 15:43:08;;;;;;;0.80;0.60;;;7.40;99.90;;;;;;4971213;28;20452;-87
2022/01/23 15:45:34;;;;;;;0.97;0.83;;;7.40;99.90;;;;;;4971576;28;20468;-86
2022/01/23 15:47:59;;;;;;;0.80;0.63;;;7.30;99.90;;;;;;4973297;28;20225;-86
2022/01/23 15:50:25;;;;;;;0.80;0.70;;;7.20;99.90;;;;;;4973761;28;20655;-85
2022/01/23 15:52:51;;;;;;;0.80;0.70;;;7.20;99.90;;;;;;4978047;28;20193;-85
2022/01/23 15:55:18;;;;;;;0.83;0.70;;;7.20;99.90;;;;;;4956554;28;20229;-85
2022/01/23 15:57:45;;;;;;;1.00;0.90;;;7.20;99.90;;;;;;4976759;28;20182;-85
2022/01/23 16:00:12;;;;;;;0.80;0.70;;;7.20;99.90;;;;;;4972312;28;20473;-86
2022/01/23 16:02:38;;;;;;;0.80;0.70;;;7.10;99.90;;;;;;4956098;28;20839;-87
2022/01/23 16:05:05;;;;;;;1.93;1.27;;;7.20;99.90;;;;;;4974006;28;20507;-85
2022/01/23 16:07:31;;;;;;;0.80;0.70;;;7.10;99.90;;;;;;4982086;28;22261;-85
2022/01/23 16:09:56;;;;;;;0.80;0.70;;;7.10;99.90;;;;;;4972820;28;20520;-88
2022/01/23 16:12:22;;;;;;;0.90;0.70;;;7.10;99.90;;;;;;4939093;28;20296;-88
2022/01/23 16:14:47;;;;;;;0.80;0.70;;;7.20;99.90;;;;;;4968847;28;20197;-88